createdAt,value
2018-05-07T00:01:09.672Z,0
2018-05-07T00:02:19.883Z,0
2018-05-07T00:03:29.509Z,0
2018-05-07T00:04:39.378Z,0
2018-05-07T00:05:49.822Z,0
2018-05-07T00:07:00.023Z,0
2018-05-07T00:08:10.149Z,0
2018-05-07T00:09:20.173Z,0
2018-05-07T00:10:30.298Z,0
2018-05-07T00:12:56.629Z,0
2018-05-07T00:14:06.763Z,0
2018-05-07T00:15:16.915Z,0
2018-05-07T00:16:27.132Z,0
2018-05-07T00:17:38.315Z,0
2018-05-07T00:18:48.469Z,0
2018-05-07T00:20:03.392Z,0
2018-05-07T00:21:13.297Z,0
2018-05-07T00:22:23.465Z,0
2018-05-07T00:23:34.725Z,0
2018-05-07T00:24:44.882Z,0
2018-05-07T00:25:54.830Z,0
2018-05-07T00:28:16.547Z,0
2018-05-07T00:29:26.745Z,0
2018-05-07T00:30:36.967Z,0
2018-05-07T00:31:47.176Z,0
2018-05-07T00:32:58.348Z,0
2018-05-07T00:34:08.538Z,0
2018-05-07T00:35:18.738Z,0
2018-05-07T00:36:28.910Z,0
2018-05-07T00:37:39.059Z,0
2018-05-07T00:38:48.845Z,0
2018-05-07T00:39:58.977Z,0
2018-05-07T00:41:09.115Z,0
2018-05-07T00:42:19.252Z,0
2018-05-07T00:43:29.456Z,0
2018-05-07T00:44:39.692Z,0
2018-05-07T00:45:50.791Z,0
2018-05-07T00:47:00.940Z,0
2018-05-07T00:48:11.069Z,0
2018-05-07T00:49:21.209Z,0
2018-05-07T00:50:31.492Z,0
2018-05-07T00:51:41.647Z,0
2018-05-07T00:52:51.415Z,0
2018-05-07T00:54:01.536Z,0
2018-05-07T00:55:11.661Z,0
2018-05-07T00:56:21.817Z,0
2018-05-07T00:57:32.121Z,0
2018-05-07T00:58:42.250Z,0
2018-05-07T00:59:53.378Z,0
2018-05-07T01:01:03.518Z,0
2018-05-07T01:02:13.294Z,0
2018-05-07T01:03:23.429Z,0
2018-05-07T01:04:33.489Z,0
2018-05-07T01:05:43.718Z,0
2018-05-07T01:06:53.915Z,0
2018-05-07T01:08:03.805Z,0
2018-05-07T01:09:13.961Z,0
2018-05-07T01:10:23.824Z,0
2018-05-07T01:11:33.814Z,0
2018-05-07T01:12:44.198Z,0
2018-05-07T01:13:54.333Z,0
2018-05-07T01:15:04.460Z,0
2018-05-07T01:16:14.657Z,0
2018-05-07T01:17:24.431Z,0
2018-05-07T01:18:34.667Z,0
2018-05-07T01:19:44.871Z,0
2018-05-07T01:20:55.143Z,0
2018-05-07T01:22:05.059Z,0
2018-05-07T01:23:15.194Z,0
2018-05-07T01:24:25.354Z,0
2018-05-07T01:25:35.530Z,0
2018-05-07T01:26:45.788Z,0
2018-05-07T01:27:55.920Z,0
2018-05-07T01:29:06.096Z,0
2018-05-07T01:30:16.225Z,0
2018-05-07T01:31:26.092Z,0
2018-05-07T01:32:36.237Z,0
2018-05-07T01:33:46.539Z,0
2018-05-07T01:34:56.741Z,0
2018-05-07T01:36:06.693Z,0
2018-05-07T01:37:16.838Z,0
2018-05-07T01:38:26.986Z,0
2018-05-07T01:39:36.879Z,0
2018-05-07T01:40:47.003Z,0
2018-05-07T01:41:57.218Z,0
2018-05-07T01:43:07.405Z,0
2018-05-07T01:44:17.648Z,0
2018-05-07T01:45:27.819Z,0
2018-05-07T01:46:37.974Z,0
2018-05-07T01:47:48.379Z,0
2018-05-07T01:48:58.509Z,0
2018-05-07T01:50:08.502Z,0
2018-05-07T01:51:18.655Z,0
2018-05-07T01:52:28.825Z,0
2018-05-07T01:53:38.587Z,0
2018-05-07T01:54:48.696Z,0
2018-05-07T01:55:58.847Z,0
2018-05-07T01:57:09.183Z,0
2018-05-07T01:58:19.049Z,0
2018-05-07T01:59:29.277Z,0
2018-05-07T02:00:39.152Z,0
2018-05-07T02:01:49.290Z,0
2018-05-07T02:02:59.411Z,0
2018-05-07T02:04:09.535Z,0
2018-05-07T02:05:19.676Z,0
2018-05-07T02:06:29.858Z,0
2018-05-07T02:07:40.092Z,0
2018-05-07T02:08:50.291Z,0
2018-05-07T02:10:00.450Z,0
2018-05-07T02:11:10.829Z,0
2018-05-07T02:12:21.045Z,0
2018-05-07T02:13:31.229Z,0
2018-05-07T02:14:41.453Z,0
2018-05-07T02:15:51.740Z,0
2018-05-07T02:17:01.855Z,0
2018-05-07T02:18:12.039Z,0
2018-05-07T02:19:22.386Z,0
2018-05-07T02:20:32.515Z,0
2018-05-07T02:21:42.668Z,0
2018-05-07T02:22:52.979Z,0
2018-05-07T02:24:03.188Z,0
2018-05-07T02:25:13.336Z,0
2018-05-07T02:26:23.256Z,0
2018-05-07T02:27:33.389Z,0
2018-05-07T02:28:43.555Z,0
2018-05-07T02:29:54.860Z,0
2018-05-07T02:31:06.485Z,0
2018-05-07T02:32:17.345Z,0
2018-05-07T02:33:26.951Z,0
2018-05-07T02:34:37.232Z,0
2018-05-07T02:35:47.462Z,0
2018-05-07T02:36:57.671Z,0
2018-05-07T02:38:07.876Z,0
2018-05-07T02:39:17.772Z,0
2018-05-07T02:44:13.638Z,0
2018-05-07T02:45:23.852Z,0
2018-05-07T02:46:34.014Z,0
2018-05-07T02:47:45.251Z,0
2018-05-07T02:48:55.513Z,0
2018-05-07T02:50:05.379Z,0
2018-05-07T02:51:14.885Z,0
2018-05-07T02:52:25.094Z,0
2018-05-07T02:53:35.374Z,0
2018-05-07T02:54:45.649Z,0
2018-05-07T02:55:55.163Z,0
2018-05-07T02:57:05.280Z,0
2018-05-07T02:58:15.405Z,0
2018-05-07T02:59:25.553Z,0
2018-05-07T03:00:35.725Z,0
2018-05-07T03:01:45.971Z,0
2018-05-07T03:02:55.749Z,0
2018-05-07T03:04:05.902Z,0
2018-05-07T03:05:16.108Z,0
2018-05-07T03:06:26.262Z,0
2018-05-07T03:07:36.495Z,0
2018-05-07T03:08:46.672Z,0
2018-05-07T03:09:56.888Z,0
2018-05-07T03:11:07.120Z,0
2018-05-07T03:12:17.506Z,0
2018-05-07T03:13:27.657Z,0
2018-05-07T03:14:37.816Z,0
2018-05-07T03:15:49.058Z,0
2018-05-07T03:16:59.200Z,0
2018-05-07T03:18:09.331Z,0
2018-05-07T03:19:19.464Z,0
2018-05-07T03:20:29.596Z,0
2018-05-07T03:21:39.778Z,0
2018-05-07T03:22:49.548Z,0
2018-05-07T03:23:59.682Z,0
2018-05-07T03:25:09.839Z,0
2018-05-07T03:26:20.101Z,0
2018-05-07T03:27:30.244Z,5
2018-05-07T03:28:40.441Z,5
2018-05-07T03:29:50.402Z,5
2018-05-07T03:31:00.553Z,5
2018-05-07T03:32:10.324Z,5
2018-05-07T03:33:20.475Z,5
2018-05-07T03:34:30.604Z,5
2018-05-07T03:35:40.775Z,5
2018-05-07T03:36:50.914Z,10
2018-05-07T03:38:01.043Z,10
2018-05-07T03:39:11.195Z,10
2018-05-07T03:40:21.078Z,10
2018-05-07T03:41:30.966Z,10
2018-05-07T03:42:40.727Z,15
2018-05-07T03:43:50.926Z,15
2018-05-07T03:45:01.199Z,15
2018-05-07T03:46:11.438Z,15
2018-05-07T03:47:21.733Z,15
2018-05-07T03:48:31.946Z,20
2018-05-07T03:49:42.073Z,20
2018-05-07T03:50:52.266Z,20
2018-05-07T03:52:02.526Z,20
2018-05-07T03:53:12.396Z,20
2018-05-07T03:54:22.521Z,25
2018-05-07T03:55:32.389Z,25
2018-05-07T03:56:42.530Z,25
2018-05-07T03:57:52.702Z,25
2018-05-07T03:59:02.834Z,30
2018-05-07T04:00:12.728Z,30
2018-05-07T04:01:22.872Z,30
2018-05-07T04:02:33.003Z,30
2018-05-07T04:03:42.953Z,30
2018-05-07T04:04:53.084Z,35
2018-05-07T04:06:03.288Z,35
2018-05-07T04:07:13.492Z,35
2018-05-07T04:08:23.425Z,35
2018-05-07T04:09:33.569Z,40
2018-05-07T04:10:43.691Z,40
2018-05-07T04:11:53.930Z,40
2018-05-07T04:13:03.875Z,40
2018-05-07T04:14:13.581Z,40
2018-05-07T04:15:23.692Z,45
2018-05-07T04:16:33.843Z,45
2018-05-07T04:17:43.746Z,45
2018-05-07T04:18:53.926Z,45
2018-05-07T04:20:04.092Z,50
2018-05-07T04:21:14.214Z,50
2018-05-07T04:22:24.381Z,50
2018-05-07T04:23:34.385Z,55
2018-05-07T04:24:44.629Z,55
2018-05-07T04:25:54.763Z,55
2018-05-07T04:27:04.930Z,55
2018-05-07T04:28:15.084Z,55
2018-05-07T04:29:25.203Z,60
2018-05-07T04:30:35.357Z,60
2018-05-07T04:31:45.483Z,60
2018-05-07T04:32:55.516Z,65
2018-05-07T04:34:05.661Z,65
2018-05-07T04:35:15.864Z,65
2018-05-07T04:36:26.004Z,65
2018-05-07T04:37:36.251Z,70
2018-05-07T04:38:46.487Z,70
2018-05-07T04:39:56.682Z,70
2018-05-07T04:41:06.820Z,70
2018-05-07T04:42:16.690Z,75
2018-05-07T04:43:27.012Z,70
2018-05-07T04:44:36.898Z,70
2018-05-07T04:45:47.030Z,70
2018-05-07T04:46:57.207Z,75
2018-05-07T04:48:07.343Z,75
2018-05-07T04:49:17.213Z,75
2018-05-07T04:50:27.347Z,80
2018-05-07T04:51:37.132Z,80
2018-05-07T04:52:47.270Z,80
2018-05-07T04:53:57.591Z,80
2018-05-07T04:55:07.912Z,80
2018-05-07T04:56:18.051Z,85
2018-05-07T04:57:28.223Z,85
2018-05-07T04:58:38.372Z,85
2018-05-07T04:59:48.539Z,85
2018-05-07T05:00:58.761Z,90
2018-05-07T05:02:08.947Z,90
2018-05-07T05:03:18.805Z,90
2018-05-07T05:04:28.979Z,90
2018-05-07T05:05:38.865Z,90
2018-05-07T05:06:49.022Z,95
2018-05-07T05:07:59.146Z,95
2018-05-07T05:09:09.418Z,95
2018-05-07T05:10:19.593Z,95
2018-05-07T05:11:29.447Z,95
2018-05-07T05:12:39.569Z,100
2018-05-07T05:13:49.690Z,100
2018-05-07T05:14:59.809Z,100
2018-05-07T05:16:09.843Z,105
2018-05-07T05:17:19.995Z,105
2018-05-07T05:18:30.201Z,120
2018-05-07T05:19:40.337Z,110
2018-05-07T05:20:50.595Z,105
2018-05-07T05:22:00.871Z,105
2018-05-07T05:23:11.037Z,105
2018-05-07T05:24:22.260Z,105
2018-05-07T05:25:32.454Z,105
2018-05-07T05:26:42.634Z,105
2018-05-07T05:27:52.767Z,105
2018-05-07T05:29:02.899Z,110
2018-05-07T05:30:13.063Z,110
2018-05-07T05:31:23.218Z,110
2018-05-07T05:32:33.085Z,110
2018-05-07T05:33:43.206Z,110
2018-05-07T05:34:53.338Z,115
2018-05-07T05:36:03.506Z,115
2018-05-07T05:37:14.012Z,115
2018-05-07T05:38:24.155Z,115
2018-05-07T05:39:34.317Z,115
2018-05-07T05:40:44.465Z,120
2018-05-07T05:41:54.656Z,120
2018-05-07T05:43:04.827Z,120
2018-05-07T05:44:14.972Z,120
2018-05-07T05:45:25.156Z,120
2018-05-07T05:46:35.305Z,120
2018-05-07T05:47:45.427Z,125
2018-05-07T05:48:55.619Z,125
2018-05-07T05:50:06.369Z,125
2018-05-07T05:51:16.529Z,125
2018-05-07T05:52:26.785Z,125
2018-05-07T05:53:36.559Z,125
2018-05-07T05:54:46.778Z,125
2018-05-07T05:55:56.909Z,125
2018-05-07T05:57:07.039Z,125
2018-05-07T05:58:17.283Z,125
2018-05-07T05:59:27.509Z,125
2018-05-07T06:00:37.386Z,125
2018-05-07T06:01:47.506Z,125
2018-05-07T06:02:57.730Z,125
2018-05-07T06:04:08.297Z,125
2018-05-07T06:05:18.432Z,125
2018-05-07T06:06:28.547Z,125
2018-05-07T06:07:38.721Z,125
2018-05-07T06:08:48.881Z,130
2018-05-07T06:09:59.130Z,130
2018-05-07T06:11:09.260Z,130
2018-05-07T06:12:20.477Z,130
2018-05-07T06:13:30.371Z,130
2018-05-07T06:14:41.225Z,130
2018-05-07T06:15:50.734Z,130
2018-05-07T06:17:00.629Z,130
2018-05-07T06:18:10.799Z,130
2018-05-07T06:19:20.935Z,135
2018-05-07T06:20:30.803Z,135
2018-05-07T06:21:40.987Z,135
2018-05-07T06:22:51.129Z,135
2018-05-07T06:24:01.328Z,135
2018-05-07T06:25:14.255Z,135
2018-05-07T06:26:24.144Z,135
2018-05-07T06:27:33.918Z,135
2018-05-07T06:28:44.082Z,135
2018-05-07T06:29:54.222Z,135
2018-05-07T06:31:04.383Z,135
2018-05-07T06:32:14.640Z,140
2018-05-07T06:33:24.846Z,140
2018-05-07T06:34:35.438Z,140
2018-05-07T06:35:45.580Z,140
2018-05-07T06:36:55.737Z,140
2018-05-07T06:38:05.884Z,140
2018-05-07T06:39:16.006Z,140
2018-05-07T06:40:26.250Z,140
2018-05-07T06:41:36.398Z,140
2018-05-07T06:42:46.694Z,140
2018-05-07T06:43:56.678Z,140
2018-05-07T06:45:06.944Z,140
2018-05-07T06:46:17.453Z,140
2018-05-07T06:47:27.644Z,140
2018-05-07T06:48:37.788Z,140
2018-05-07T06:49:47.927Z,140
2018-05-07T06:50:58.195Z,145
2018-05-07T06:52:08.595Z,145
2018-05-07T06:53:18.763Z,145
2018-05-07T06:54:28.920Z,145
2018-05-07T06:55:39.120Z,145
2018-05-07T06:56:49.316Z,145
2018-05-07T06:57:59.233Z,145
2018-05-07T06:59:09.385Z,150
2018-05-07T07:00:19.265Z,145
2018-05-07T07:01:29.397Z,145
2018-05-07T07:02:40.426Z,145
2018-05-07T07:03:50.594Z,150
2018-05-07T07:05:00.750Z,150
2018-05-07T07:06:10.909Z,150
2018-05-07T07:07:21.044Z,150
2018-05-07T07:08:31.753Z,150
2018-05-07T07:09:41.646Z,150
2018-05-07T07:10:51.815Z,150
2018-05-07T07:12:01.954Z,150
2018-05-07T07:13:12.158Z,150
2018-05-07T07:14:22.324Z,150
2018-05-07T07:15:32.454Z,155
2018-05-07T07:16:42.665Z,155
2018-05-07T07:17:52.557Z,155
2018-05-07T07:19:02.691Z,155
2018-05-07T07:20:12.840Z,155
2018-05-07T07:21:22.701Z,155
2018-05-07T07:22:32.590Z,155
2018-05-07T07:23:42.736Z,160
2018-05-07T07:24:52.906Z,160
2018-05-07T07:26:04.653Z,160
2018-05-07T07:27:15.198Z,160
2018-05-07T07:28:25.583Z,160
2018-05-07T07:30:49.637Z,170
2018-05-07T07:31:59.793Z,165
2018-05-07T07:33:10.736Z,165
2018-05-07T07:34:20.886Z,170
2018-05-07T07:35:31.059Z,170
2018-05-07T07:36:41.288Z,170
2018-05-07T07:37:51.446Z,175
2018-05-07T07:39:01.671Z,175
2018-05-07T07:40:12.031Z,175
2018-05-07T07:41:22.266Z,180
2018-05-07T07:42:32.428Z,180
2018-05-07T07:43:42.703Z,185
2018-05-07T07:44:52.840Z,185
2018-05-07T07:46:03.019Z,195
2018-05-07T07:47:13.806Z,190
2018-05-07T07:48:24.097Z,190
2018-05-07T07:49:34.234Z,195
2018-05-07T07:50:44.558Z,195
2018-05-07T07:51:54.741Z,200
2018-05-07T07:53:04.932Z,200
2018-05-07T07:54:15.068Z,205
2018-05-07T07:55:24.977Z,205
2018-05-07T07:56:35.102Z,210
2018-05-07T07:57:45.304Z,210
2018-05-07T07:58:55.438Z,215
2018-05-07T08:00:05.883Z,215
2018-05-07T08:01:16.054Z,215
2018-05-07T08:02:26.265Z,215
2018-05-07T08:03:36.168Z,220
2018-05-07T08:04:46.058Z,220
2018-05-07T08:05:56.219Z,220
2018-05-07T08:07:06.389Z,220
2018-05-07T08:08:16.534Z,220
2018-05-07T08:09:26.675Z,220
2018-05-07T08:10:36.833Z,220
2018-05-07T08:11:46.767Z,220
2018-05-07T08:12:56.915Z,220
2018-05-07T08:14:07.070Z,220
2018-05-07T08:15:17.201Z,220
2018-05-07T08:16:27.388Z,225
2018-05-07T08:17:37.582Z,230
2018-05-07T08:18:47.779Z,240
2018-05-07T08:19:57.921Z,260
2018-05-07T08:21:08.072Z,275
2018-05-07T08:22:18.222Z,300
2018-05-07T08:23:28.400Z,320
2018-05-07T08:24:38.311Z,345
2018-05-07T08:25:48.527Z,365
2018-05-07T08:26:58.712Z,375
2018-05-07T08:28:08.912Z,395
2018-05-07T08:29:19.063Z,405
2018-05-07T08:30:29.314Z,430
2018-05-07T08:31:39.788Z,485
2018-05-07T08:32:49.994Z,1230
2018-05-07T08:34:00.249Z,1800
2018-05-07T08:35:10.510Z,1995
2018-05-07T08:36:20.401Z,2165
2018-05-07T08:37:30.556Z,2225
2018-05-07T08:38:40.699Z,2210
2018-05-07T08:39:50.862Z,2140
2018-05-07T08:41:01.816Z,2015
2018-05-07T08:42:11.958Z,1935
2018-05-07T08:43:21.528Z,1965
2018-05-07T08:44:31.428Z,2025
2018-05-07T08:45:41.566Z,2130
2018-05-07T08:46:52.312Z,2500
2018-05-07T08:48:02.030Z,2690
2018-05-07T08:49:12.209Z,2675
2018-05-07T08:50:21.985Z,2715
2018-05-07T08:51:32.153Z,2850
2018-05-07T08:52:42.126Z,2855
2018-05-07T08:53:52.304Z,2700
2018-05-07T08:55:02.465Z,2500
2018-05-07T08:56:12.621Z,2480
2018-05-07T08:57:22.821Z,2530
2018-05-07T08:58:32.979Z,2570
2018-05-07T08:59:43.128Z,2475
2018-05-07T09:00:53.276Z,2360
2018-05-07T09:02:03.560Z,2175
2018-05-07T09:03:13.883Z,2080
2018-05-07T09:04:24.094Z,2065
2018-05-07T09:05:33.996Z,2110
2018-05-07T09:06:43.883Z,2145
2018-05-07T09:07:53.824Z,2120
2018-05-07T09:09:03.980Z,2105
2018-05-07T09:10:14.158Z,2135
2018-05-07T09:11:24.063Z,2245
2018-05-07T09:12:34.264Z,2360
2018-05-07T09:13:44.460Z,2475
2018-05-07T09:14:54.615Z,2570
2018-05-07T09:16:04.422Z,2660
2018-05-07T09:17:14.337Z,2720
2018-05-07T09:18:24.493Z,2785
2018-05-07T09:19:34.445Z,2885
2018-05-07T09:20:44.452Z,2955
2018-05-07T09:21:54.593Z,2980
2018-05-07T09:23:04.788Z,3000
2018-05-07T09:24:14.963Z,3040
2018-05-07T09:25:25.145Z,2970
2018-05-07T09:26:35.094Z,2910
2018-05-07T09:27:45.256Z,2845
2018-05-07T09:28:55.413Z,2745
2018-05-07T09:30:05.566Z,2630
2018-05-07T09:31:15.737Z,2540
2018-05-07T09:32:25.943Z,2485
2018-05-07T09:33:36.093Z,2450
2018-05-07T09:34:46.242Z,2435
2018-05-07T09:35:56.637Z,2590
2018-05-07T09:37:06.869Z,2710
2018-05-07T09:38:17.105Z,2775
2018-05-07T09:39:27.389Z,2785
2018-05-07T09:40:37.311Z,2710
2018-05-07T09:41:47.470Z,2615
2018-05-07T09:42:57.801Z,2535
2018-05-07T09:44:08.050Z,2515
2018-05-07T09:45:18.280Z,2500
2018-05-07T09:46:28.549Z,2525
2018-05-07T09:47:38.737Z,2570
2018-05-07T09:48:49.074Z,2575
2018-05-07T09:49:58.975Z,2630
2018-05-07T09:51:11.992Z,2680
2018-05-07T09:52:22.013Z,2720
2018-05-07T09:53:32.211Z,2665
2018-05-07T09:54:42.396Z,2525
2018-05-07T09:55:52.342Z,2450
2018-05-07T09:57:02.970Z,2455
2018-05-07T09:58:13.257Z,2540
2018-05-07T09:59:23.754Z,2620
2018-05-07T10:00:33.911Z,2690
2018-05-07T10:01:44.104Z,2775
2018-05-07T10:02:56.711Z,2860
2018-05-07T10:04:08.113Z,2875
2018-05-07T10:05:22.576Z,2855
2018-05-07T10:06:32.745Z,2850
2018-05-07T10:07:42.897Z,2810
2018-05-07T10:08:53.147Z,2820
2018-05-07T10:10:03.311Z,2875
2018-05-07T10:11:13.465Z,2945
2018-05-07T10:12:23.471Z,2985
2018-05-07T10:13:33.373Z,2995
2018-05-07T10:14:43.647Z,3005
2018-05-07T10:15:53.917Z,3020
2018-05-07T10:17:04.334Z,3040
2018-05-07T10:18:14.483Z,3050
2018-05-07T10:19:24.671Z,3050
2018-05-07T10:20:34.852Z,3070
2018-05-07T10:21:45.018Z,3230
2018-05-07T10:22:55.229Z,3370
2018-05-07T10:24:05.553Z,3500
2018-05-07T10:25:15.360Z,3590
2018-05-07T10:26:25.522Z,3650
2018-05-07T10:27:35.675Z,3695
2018-05-07T10:28:45.879Z,3670
2018-05-07T10:29:56.627Z,3640
2018-05-07T10:31:06.855Z,3540
2018-05-07T10:32:17.057Z,3430
2018-05-07T10:33:27.219Z,3335
2018-05-07T10:34:37.512Z,3350
2018-05-07T10:35:47.326Z,3350
2018-05-07T10:36:57.514Z,3330
2018-05-07T10:38:07.661Z,3315
2018-05-07T10:39:17.824Z,3285
2018-05-07T10:40:28.063Z,3245
2018-05-07T10:41:37.770Z,3210
2018-05-07T10:42:48.171Z,3225
2018-05-07T10:43:58.340Z,3185
2018-05-07T10:45:08.152Z,3190
2018-05-07T10:46:18.334Z,3175
2018-05-07T10:47:28.500Z,3155
2018-05-07T10:48:38.709Z,3175
2018-05-07T10:49:49.864Z,3240
2018-05-07T10:50:59.508Z,3340
2018-05-07T10:52:09.795Z,3410
2018-05-07T10:53:19.626Z,3440
2018-05-07T10:54:29.798Z,3510
2018-05-07T10:55:40.005Z,3535
2018-05-07T10:56:49.914Z,3580
2018-05-07T10:58:00.099Z,3610
2018-05-07T10:59:12.212Z,3605
2018-05-07T11:00:22.109Z,3600
2018-05-07T11:01:33.359Z,3525
2018-05-07T11:02:43.548Z,3345
2018-05-07T11:03:53.364Z,3155
2018-05-07T11:05:03.557Z,2975
2018-05-07T11:06:13.696Z,2860
2018-05-07T11:07:23.966Z,2930
2018-05-07T11:08:33.810Z,3075
2018-05-07T11:09:44.123Z,3150
2018-05-07T11:10:54.285Z,3115
2018-05-07T11:12:03.876Z,3035
2018-05-07T11:13:14.074Z,2900
2018-05-07T11:14:24.237Z,2805
2018-05-07T11:15:34.392Z,2850
2018-05-07T11:16:44.369Z,3040
2018-05-07T11:17:54.359Z,3070
2018-05-07T11:19:04.173Z,3095
2018-05-07T11:20:14.112Z,3110
2018-05-07T11:21:24.336Z,3025
2018-05-07T11:22:34.521Z,3040
2018-05-07T11:23:44.689Z,3110
2018-05-07T11:24:54.872Z,3160
2018-05-07T11:26:05.028Z,3285
2018-05-07T11:27:14.862Z,3385
2018-05-07T11:28:24.780Z,3405
2018-05-07T11:29:34.750Z,3385
2018-05-07T11:30:44.742Z,3350
2018-05-07T11:31:54.980Z,3295
2018-05-07T11:33:04.902Z,3235
2018-05-07T11:34:15.062Z,3130
2018-05-07T11:35:25.250Z,3040
2018-05-07T11:36:35.421Z,2985
2018-05-07T11:37:45.596Z,2945
2018-05-07T11:38:55.821Z,2920
2018-05-07T11:40:05.772Z,2965
2018-05-07T11:41:15.933Z,3060
2018-05-07T11:42:26.110Z,3105
2018-05-07T11:43:36.280Z,3010
2018-05-07T11:44:46.453Z,2845
2018-05-07T11:45:56.105Z,2715
2018-05-07T11:47:06.410Z,2675
2018-05-07T11:48:16.612Z,2665
2018-05-07T11:49:26.806Z,2740
2018-05-07T11:50:36.706Z,2880
2018-05-07T11:51:46.906Z,3065
2018-05-07T11:52:56.812Z,3170
2018-05-07T11:54:06.965Z,3195
2018-05-07T11:55:17.131Z,3140
2018-05-07T11:56:27.222Z,3075
2018-05-07T11:57:37.397Z,3005
2018-05-07T11:58:47.384Z,2940
2018-05-07T11:59:57.555Z,2915
2018-05-07T12:01:07.716Z,2895
2018-05-07T12:02:17.964Z,2915
2018-05-07T12:03:27.830Z,3000
2018-05-07T12:04:37.996Z,3115
2018-05-07T12:05:48.149Z,3220
2018-05-07T12:06:58.330Z,3360
2018-05-07T12:08:08.786Z,3430
2018-05-07T12:09:19.159Z,3375
2018-05-07T12:10:29.383Z,3290
2018-05-07T12:11:39.564Z,3190
2018-05-07T12:12:49.808Z,3060
2018-05-07T12:13:59.749Z,3000
2018-05-07T12:15:09.952Z,2950
2018-05-07T12:16:20.167Z,2905
2018-05-07T12:17:30.351Z,2915
2018-05-07T12:18:40.506Z,2960
2018-05-07T12:19:50.707Z,3060
2018-05-07T12:21:00.606Z,3140
2018-05-07T12:22:10.778Z,3160
2018-05-07T12:23:21.302Z,3070
2018-05-07T12:24:31.599Z,2975
2018-05-07T12:25:41.785Z,2975
2018-05-07T12:26:51.975Z,3035
2018-05-07T12:28:02.213Z,3060
2018-05-07T12:29:12.405Z,3080
2018-05-07T12:30:22.590Z,3060
2018-05-07T12:31:33.369Z,3000
2018-05-07T12:32:43.712Z,2935
2018-05-07T12:33:53.894Z,2895
2018-05-07T12:35:04.056Z,2830
2018-05-07T12:36:14.238Z,2815
2018-05-07T12:37:24.560Z,2885
2018-05-07T12:38:34.549Z,2975
2018-05-07T12:39:44.789Z,3000
2018-05-07T12:40:54.961Z,2960
2018-05-07T12:42:05.124Z,2870
2018-05-07T12:43:15.295Z,2810
2018-05-07T12:44:25.512Z,2785
2018-05-07T12:45:35.721Z,2730
2018-05-07T12:46:45.564Z,2740
2018-05-07T12:47:55.814Z,2780
2018-05-07T12:49:06.064Z,2845
2018-05-07T12:50:16.340Z,2955
2018-05-07T12:51:26.753Z,2985
2018-05-07T12:52:37.182Z,2960
2018-05-07T12:53:47.343Z,2930
2018-05-07T12:54:57.521Z,2785
2018-05-07T12:56:07.444Z,2700
2018-05-07T12:57:17.734Z,2700
2018-05-07T12:58:27.669Z,2690
2018-05-07T12:59:37.827Z,2710
2018-05-07T13:00:47.491Z,2770
2018-05-07T13:01:57.410Z,2920
2018-05-07T13:03:07.431Z,3055
2018-05-07T13:04:18.698Z,3150
2018-05-07T13:05:28.642Z,3125
2018-05-07T13:06:38.801Z,3005
2018-05-07T13:07:48.513Z,2820
2018-05-07T13:08:58.700Z,2735
2018-05-07T13:10:08.879Z,2750
2018-05-07T13:11:18.838Z,2830
2018-05-07T13:12:29.239Z,2895
2018-05-07T13:13:39.500Z,2915
2018-05-07T13:14:49.662Z,2965
2018-05-07T13:15:59.862Z,3015
2018-05-07T13:17:10.247Z,2970
2018-05-07T13:18:20.283Z,2910
2018-05-07T13:19:30.458Z,2835
2018-05-07T13:20:40.834Z,2735
2018-05-07T13:21:51.047Z,2665
2018-05-07T13:23:01.353Z,2545
2018-05-07T13:24:11.620Z,2475
2018-05-07T13:25:21.527Z,2500
2018-05-07T13:26:31.790Z,2640
2018-05-07T13:27:42.019Z,2750
2018-05-07T13:28:52.286Z,2755
2018-05-07T13:30:02.245Z,2695
2018-05-07T13:31:12.437Z,2550
2018-05-07T13:32:22.617Z,2430
2018-05-07T13:33:32.798Z,2395
2018-05-07T13:34:42.978Z,2465
2018-05-07T13:35:53.175Z,2550
2018-05-07T13:37:03.540Z,2625
2018-05-07T13:38:13.740Z,2695
2018-05-07T13:39:23.933Z,2735
2018-05-07T13:40:34.170Z,2765
2018-05-07T13:41:44.101Z,2725
2018-05-07T13:42:54.423Z,2675
2018-05-07T13:44:04.631Z,2620
2018-05-07T13:45:14.853Z,2575
2018-05-07T13:46:25.053Z,2570
2018-05-07T13:47:35.259Z,2575
2018-05-07T13:48:45.617Z,2550
2018-05-07T13:49:55.843Z,2480
2018-05-07T13:51:06.292Z,2475
2018-05-07T13:52:16.519Z,2495
2018-05-07T13:53:26.685Z,2500
2018-05-07T13:54:36.848Z,2400
2018-05-07T13:55:46.884Z,2365
2018-05-07T13:56:57.492Z,2320
2018-05-07T13:58:07.459Z,2205
2018-05-07T13:59:17.647Z,2080
2018-05-07T14:00:27.564Z,2040
2018-05-07T14:01:37.726Z,2005
2018-05-07T14:02:48.528Z,2040
2018-05-07T14:03:58.835Z,2130
2018-05-07T14:05:09.010Z,2205
2018-05-07T14:06:19.185Z,2225
2018-05-07T14:07:29.368Z,2185
2018-05-07T14:08:40.065Z,2120
2018-05-07T14:09:51.218Z,2110
2018-05-07T14:11:01.403Z,2185
2018-05-07T14:12:11.618Z,2250
2018-05-07T14:13:21.797Z,2200
2018-05-07T14:14:32.196Z,2090
2018-05-07T14:15:42.426Z,1960
2018-05-07T14:16:52.948Z,1915
2018-05-07T14:18:02.855Z,1990
2018-05-07T14:19:13.041Z,2035
2018-05-07T14:20:22.970Z,2015
2018-05-07T14:21:32.922Z,1950
2018-05-07T14:22:43.108Z,1880
2018-05-07T14:23:53.293Z,1895
2018-05-07T14:25:03.539Z,1980
2018-05-07T14:26:13.590Z,2090
2018-05-07T14:27:23.900Z,2140
2018-05-07T14:28:34.118Z,2080
2018-05-07T14:29:44.053Z,2000
2018-05-07T14:30:54.265Z,1900
2018-05-07T14:32:04.484Z,1775
2018-05-07T14:33:14.726Z,1740
2018-05-07T14:34:24.935Z,1795
2018-05-07T14:35:35.154Z,1895
2018-05-07T14:36:45.331Z,2005
2018-05-07T14:37:55.534Z,2020
2018-05-07T14:39:05.736Z,1905
2018-05-07T14:40:15.939Z,1745
2018-05-07T14:41:25.837Z,1680
2018-05-07T14:42:35.981Z,1775
2018-05-07T14:43:46.173Z,1875
2018-05-07T14:44:56.338Z,1865
2018-05-07T14:46:06.499Z,1780
2018-05-07T14:47:16.469Z,1725
2018-05-07T14:48:26.686Z,1735
2018-05-07T14:49:36.847Z,1755
2018-05-07T14:50:47.051Z,1740
2018-05-07T14:51:57.126Z,1705
2018-05-07T14:53:07.488Z,1695
2018-05-07T14:54:17.675Z,1650
2018-05-07T14:55:27.871Z,1650
2018-05-07T14:56:38.049Z,1680
2018-05-07T14:57:48.338Z,1765
2018-05-07T14:58:58.625Z,1870
2018-05-07T15:00:08.777Z,1860
2018-05-07T15:01:18.988Z,1720
2018-05-07T15:02:28.892Z,1630
2018-05-07T15:03:39.104Z,1670
2018-05-07T15:04:49.280Z,1670
2018-05-07T15:05:59.458Z,1580
2018-05-07T15:07:09.624Z,1455
2018-05-07T15:08:20.864Z,1410
2018-05-07T15:09:31.079Z,1400
2018-05-07T15:10:41.258Z,1390
2018-05-07T15:11:51.182Z,1355
2018-05-07T15:13:01.371Z,1380
2018-05-07T15:14:11.525Z,1450
2018-05-07T15:15:21.695Z,1550
2018-05-07T15:16:31.872Z,1575
2018-05-07T15:17:42.051Z,1540
2018-05-07T15:18:52.263Z,1475
2018-05-07T15:20:02.422Z,1400
2018-05-07T15:21:12.617Z,1275
2018-05-07T15:22:22.859Z,785
2018-05-07T15:23:33.263Z,410
2018-05-07T15:24:43.404Z,340
2018-05-07T15:25:53.309Z,310
2018-05-07T15:27:02.953Z,290
2018-05-07T15:28:12.851Z,280
2018-05-07T15:29:23.633Z,265
2018-05-07T15:30:33.854Z,255
2018-05-07T15:31:44.143Z,250
2018-05-07T15:32:54.332Z,245
2018-05-07T15:34:04.512Z,235
2018-05-07T15:35:14.506Z,230
2018-05-07T15:36:25.122Z,230
2018-05-07T15:37:35.431Z,225
2018-05-07T15:38:45.616Z,225
2018-05-07T15:39:55.511Z,220
2018-05-07T15:41:05.685Z,220
2018-05-07T15:42:16.632Z,215
2018-05-07T15:43:26.816Z,215
2018-05-07T15:44:37.106Z,215
2018-05-07T15:45:47.414Z,210
2018-05-07T15:46:57.626Z,210
2018-05-07T15:48:07.265Z,210
2018-05-07T15:49:17.634Z,205
2018-05-07T15:50:27.908Z,205
2018-05-07T15:51:38.066Z,205
2018-05-07T15:52:48.322Z,200
2018-05-07T15:53:58.698Z,200
2018-05-07T15:55:08.927Z,200
2018-05-07T15:56:19.124Z,195
2018-05-07T15:57:29.295Z,195
2018-05-07T15:58:39.144Z,195
2018-05-07T15:59:49.353Z,190
2018-05-07T16:00:59.592Z,190
2018-05-07T16:02:08.995Z,190
2018-05-07T16:03:20.355Z,190
2018-05-07T16:04:30.652Z,185
2018-05-07T16:05:40.817Z,185
2018-05-07T16:06:50.995Z,180
2018-05-07T16:08:01.193Z,180
2018-05-07T16:09:11.350Z,180
2018-05-07T16:10:21.538Z,180
2018-05-07T16:11:31.680Z,180
2018-05-07T16:12:41.853Z,175
2018-05-07T16:13:52.144Z,175
2018-05-07T16:15:02.842Z,170
2018-05-07T16:16:13.060Z,165
2018-05-07T16:17:23.314Z,165
2018-05-07T16:18:33.680Z,165